createdAt,value
2023-12-09T00:01:45.947Z,89.85
2023-12-09T00:04:48.774Z,89.79
2023-12-09T00:07:51.580Z,89.23
2023-12-09T00:10:54.621Z,89.21
2023-12-09T00:14:04.689Z,89.49
2023-12-09T00:17:08.883Z,89.45
2023-12-09T00:20:12.752Z,90.27
2023-12-09T00:23:18.111Z,89.92
2023-12-09T00:26:21.255Z,89.32
2023-12-09T00:29:24.129Z,89.31
2023-12-09T00:32:27.617Z,89.19
2023-12-09T00:35:30.976Z,88.64
2023-12-09T00:38:33.825Z,88.87
2023-12-09T00:41:36.987Z,89.96
2023-12-09T00:44:40.287Z,90.28
2023-12-09T00:47:44.472Z,90.18
2023-12-09T00:50:47.495Z,89.79
2023-12-09T00:53:50.727Z,90.03
2023-12-09T00:56:53.871Z,90.01
2023-12-09T00:59:57.043Z,89.23
2023-12-09T01:02:59.905Z,88.82
2023-12-09T01:06:06.406Z,89.34
2023-12-09T01:09:09.491Z,89.26
2023-12-09T01:12:12.292Z,89.61
2023-12-09T01:15:15.534Z,90.06
2023-12-09T01:18:18.555Z,89.90
2023-12-09T01:21:23.449Z,88.82
2023-12-09T01:24:26.534Z,89.67
2023-12-09T01:27:30.417Z,88.78
2023-12-09T01:30:33.677Z,89.60
2023-12-09T01:33:38.545Z,90.00
2023-12-09T01:36:41.729Z,90.53
2023-12-09T01:39:44.911Z,89.59
2023-12-09T01:42:49.708Z,88.10
2023-12-09T01:45:56.871Z,88.43
2023-12-09T01:49:00.040Z,88.60
2023-12-09T01:52:03.233Z,88.97
2023-12-09T01:55:07.874Z,87.41
2023-12-09T01:58:11.904Z,87.75
2023-12-09T02:01:15.281Z,87.42
2023-12-09T02:04:20.140Z,87.18
2023-12-09T02:07:23.273Z,86.75
2023-12-09T02:10:28.770Z,86.28
2023-12-09T02:13:48.577Z,85.69
2023-12-09T02:17:09.482Z,87.13
2023-12-09T02:20:12.885Z,87.46
2023-12-09T02:23:16.115Z,87.47
2023-12-09T02:26:26.566Z,88.45
2023-12-09T02:29:34.363Z,87.66
2023-12-09T02:32:40.009Z,87.16
2023-12-09T02:35:45.344Z,87.80
2023-12-09T02:38:48.639Z,87.84
2023-12-09T02:41:54.070Z,87.96
2023-12-09T02:44:57.715Z,88.05
2023-12-09T02:48:00.790Z,88.41
2023-12-09T02:51:04.413Z,88.47
2023-12-09T02:54:07.562Z,87.32
2023-12-09T02:57:10.759Z,87.34
2023-12-09T03:00:14.421Z,87.79
2023-12-09T03:03:17.588Z,88.09
2023-12-09T03:06:20.857Z,88.67
2023-12-09T03:09:23.974Z,87.68
2023-12-09T03:12:27.494Z,88.29
2023-12-09T03:15:31.717Z,87.57
2023-12-09T03:18:34.792Z,88.78
2023-12-09T03:21:38.008Z,87.95
2023-12-09T03:24:44.179Z,87.92
2023-12-09T03:27:47.241Z,86.95
2023-12-09T03:30:50.066Z,87.00
2023-12-09T03:33:52.946Z,86.69
2023-12-09T03:36:55.809Z,87.06
2023-12-09T03:39:59.349Z,86.96
2023-12-09T03:43:02.344Z,87.03
2023-12-09T03:46:05.464Z,86.71
2023-12-09T03:49:08.801Z,86.80
2023-12-09T03:52:11.957Z,87.72
2023-12-09T03:55:16.258Z,87.52
2023-12-09T03:58:21.806Z,87.96
2023-12-09T04:01:26.066Z,87.84
2023-12-09T04:04:30.359Z,88.77
2023-12-09T04:07:33.209Z,88.25
2023-12-09T04:10:35.986Z,88.03
2023-12-09T04:14:54.656Z,87.76
2023-12-09T04:22:40.765Z,87.84
2023-12-09T04:25:43.937Z,87.96
2023-12-09T04:28:48.013Z,88.25
2023-12-09T04:31:51.182Z,88.62
2023-12-09T04:34:56.585Z,88.83
2023-12-09T04:37:59.716Z,88.58
2023-12-09T04:41:02.940Z,88.39
2023-12-09T04:44:06.210Z,88.19
2023-12-09T04:47:09.313Z,87.92
2023-12-09T04:50:12.549Z,88.49
2023-12-09T04:53:15.516Z,88.53
2023-12-09T04:56:19.149Z,88.36
2023-12-09T04:59:22.055Z,88.16
2023-12-09T05:02:25.539Z,88.57
2023-12-09T05:05:28.526Z,87.91
2023-12-09T05:08:31.653Z,88.10
2023-12-09T05:11:35.523Z,88.08
2023-12-09T05:14:38.651Z,87.34
2023-12-09T05:17:41.922Z,87.49
2023-12-09T05:20:45.622Z,87.98
2023-12-09T05:23:48.746Z,88.58
2023-12-09T05:26:51.799Z,87.96
2023-12-09T05:29:55.878Z,88.22
2023-12-09T05:32:59.221Z,87.57
2023-12-09T05:36:02.469Z,88.36
2023-12-09T05:39:08.184Z,88.33
2023-12-09T05:42:11.206Z,88.05
2023-12-09T05:45:14.483Z,87.89
2023-12-09T05:48:17.763Z,88.32
2023-12-09T05:51:20.782Z,88.86
2023-12-09T05:54:24.421Z,87.69
2023-12-09T05:57:27.730Z,88.42
2023-12-09T06:00:31.724Z,88.77
2023-12-09T06:03:35.644Z,88.77
2023-12-09T06:06:39.194Z,88.89
2023-12-09T06:09:42.492Z,88.71
2023-12-09T06:12:45.565Z,88.89
2023-12-09T06:15:50.964Z,88.98
2023-12-09T06:18:54.263Z,89.27
2023-12-09T06:21:57.425Z,88.97
2023-12-09T06:25:00.317Z,89.21
2023-12-09T06:28:03.115Z,89.41
2023-12-09T06:31:06.369Z,88.85
2023-12-09T06:34:10.236Z,89.74
2023-12-09T06:37:13.517Z,89.59
2023-12-09T06:40:16.424Z,89.90
2023-12-09T06:43:19.880Z,88.75
2023-12-09T06:46:23.125Z,88.95
2023-12-09T06:49:26.456Z,89.45
2023-12-09T06:52:30.354Z,89.26
2023-12-09T06:55:33.484Z,89.28
2023-12-09T06:58:37.642Z,88.91
2023-12-09T07:01:40.644Z,89.51
2023-12-09T07:04:44.262Z,89.47
2023-12-09T07:07:50.022Z,89.02
2023-12-09T07:10:53.204Z,89.67
2023-12-09T07:13:56.094Z,89.25
2023-12-09T07:16:59.155Z,88.96
2023-12-09T07:20:02.553Z,88.62
2023-12-09T07:23:06.270Z,88.53
2023-12-09T07:26:09.400Z,87.25
2023-12-09T07:29:12.576Z,87.76
2023-12-09T07:32:15.968Z,87.78
2023-12-09T07:35:19.368Z,87.76
2023-12-09T07:38:22.586Z,87.21
2023-12-09T07:41:25.730Z,86.84
2023-12-09T07:44:28.643Z,86.50
2023-12-09T07:47:31.652Z,86.41
2023-12-09T07:50:36.198Z,86.24
2023-12-09T07:53:39.360Z,86.82
2023-12-09T07:56:42.346Z,86.43
2023-12-09T07:59:45.502Z,86.21
2023-12-09T08:02:48.696Z,86.21
2023-12-09T08:05:52.046Z,86.43
2023-12-09T08:08:54.839Z,86.36
2023-12-09T08:11:57.757Z,87.37
2023-12-09T08:15:00.741Z,87.53
2023-12-09T08:18:05.235Z,87.16
2023-12-09T08:21:08.444Z,86.98
2023-12-09T08:24:11.603Z,87.18
2023-12-09T08:30:41.981Z,86.88
2023-12-09T08:33:45.133Z,86.89
2023-12-09T08:36:48.376Z,86.78
2023-12-09T08:39:51.266Z,86.34
2023-12-09T08:42:54.220Z,87.50
2023-12-09T08:45:57.342Z,86.77
2023-12-09T08:49:00.736Z,87.61
2023-12-09T08:52:04.161Z,87.05
2023-12-09T08:55:08.240Z,86.56
2023-12-09T08:58:11.356Z,86.82
2023-12-09T09:01:14.594Z,86.63
2023-12-09T09:04:19.627Z,86.99
2023-12-09T09:07:22.983Z,86.06
2023-12-09T09:10:26.084Z,85.54
2023-12-09T09:14:48.158Z,85.73
2023-12-09T09:18:16.652Z,85.13
2023-12-09T09:21:19.877Z,84.79
2023-12-09T09:24:25.945Z,85.47
2023-12-09T09:27:56.499Z,85.86
2023-12-09T09:30:59.377Z,86.32
2023-12-09T09:34:03.160Z,84.92
2023-12-09T09:37:06.278Z,85.00
2023-12-09T09:40:09.580Z,86.02
2023-12-09T09:43:25.276Z,84.84
2023-12-09T09:46:29.436Z,82.81
2023-12-09T09:49:35.988Z,83.38
2023-12-09T09:52:41.999Z,84.19
2023-12-09T09:55:46.848Z,84.17
2023-12-09T09:58:50.124Z,84.18
2023-12-09T10:01:53.508Z,84.16
2023-12-09T10:04:59.592Z,82.34
2023-12-09T10:08:02.619Z,82.62
2023-12-09T10:11:06.017Z,84.03
2023-12-09T10:14:09.003Z,84.38
2023-12-09T10:17:12.408Z,84.03
2023-12-09T10:20:16.539Z,84.05
2023-12-09T10:23:20.832Z,82.29
2023-12-09T10:26:24.021Z,83.46
2023-12-09T10:29:26.867Z,83.02
2023-12-09T10:32:31.222Z,83.38
2023-12-09T10:35:35.621Z,82.71
2023-12-09T10:38:44.822Z,82.49
2023-12-09T10:41:48.391Z,81.54
2023-12-09T10:44:51.554Z,80.83
2023-12-09T10:47:55.312Z,81.34
2023-12-09T10:50:59.414Z,81.96
2023-12-09T10:54:02.906Z,81.25
2023-12-09T10:57:06.336Z,83.57
2023-12-09T11:00:16.066Z,83.37
2023-12-09T11:03:22.062Z,82.58
2023-12-09T11:06:29.064Z,82.14
2023-12-09T11:09:33.529Z,82.68
2023-12-09T11:12:36.983Z,81.28
2023-12-09T11:15:41.420Z,82.52
2023-12-09T11:18:52.843Z,82.79
2023-12-09T11:21:56.610Z,81.77
2023-12-09T11:24:59.482Z,79.34
2023-12-09T11:28:04.501Z,78.30
2023-12-09T11:31:08.281Z,78.13
2023-12-09T11:34:16.416Z,79.07
2023-12-09T11:37:19.854Z,78.46
2023-12-09T11:40:22.963Z,79.51
2023-12-09T11:43:25.870Z,79.87
2023-12-09T11:46:30.748Z,79.49
2023-12-09T11:49:34.897Z,79.41
2023-12-09T11:52:37.748Z,78.12
2023-12-09T11:55:41.792Z,77.96
2023-12-09T11:58:44.587Z,79.20
2023-12-09T12:01:47.784Z,79.91
2023-12-09T12:04:50.877Z,78.07
2023-12-09T12:07:54.099Z,77.96
2023-12-09T12:10:57.289Z,78.07
2023-12-09T12:14:01.382Z,75.90
2023-12-09T12:17:04.791Z,75.82
2023-12-09T12:20:10.984Z,75.10
2023-12-09T12:23:23.373Z,76.64
2023-12-09T12:26:33.281Z,76.30
2023-12-09T12:29:42.343Z,77.58
2023-12-09T12:32:56.675Z,76.33
2023-12-09T12:36:00.910Z,75.88
2023-12-09T12:39:04.491Z,76.82
2023-12-09T12:42:09.647Z,75.51
2023-12-09T12:45:19.794Z,75.09
2023-12-09T12:48:22.940Z,76.66
2023-12-09T12:51:27.173Z,76.70
2023-12-09T12:54:30.766Z,76.91
2023-12-09T12:57:33.826Z,76.56
2023-12-09T13:00:36.939Z,76.59
2023-12-09T13:03:40.136Z,76.21
2023-12-09T13:06:43.513Z,77.78
2023-12-09T13:09:46.597Z,78.58
2023-12-09T13:12:49.718Z,78.86
2023-12-09T13:15:52.674Z,78.46
2023-12-09T13:18:55.844Z,79.69
2023-12-09T13:21:59.374Z,79.52
2023-12-09T13:25:06.362Z,80.22
2023-12-09T13:28:10.214Z,79.35
2023-12-09T13:31:15.181Z,79.82
2023-12-09T13:34:18.239Z,79.98
2023-12-09T13:37:21.721Z,79.63
2023-12-09T13:40:25.001Z,79.91
2023-12-09T13:43:28.405Z,80.75
2023-12-09T13:46:31.362Z,80.34
2023-12-09T13:49:34.913Z,80.87
2023-12-09T13:52:38.924Z,80.46
2023-12-09T13:55:42.201Z,80.46
2023-12-09T13:58:47.966Z,81.91
2023-12-09T14:01:51.001Z,81.56
2023-12-09T14:04:54.145Z,80.68
2023-12-09T14:07:57.413Z,82.31
2023-12-09T14:11:01.519Z,81.42
2023-12-09T14:14:04.730Z,80.87
2023-12-09T14:17:10.551Z,81.00
2023-12-09T14:20:16.656Z,80.86
2023-12-09T14:23:21.225Z,82.17
2023-12-09T14:26:25.213Z,81.12
2023-12-09T14:29:28.622Z,80.76
2023-12-09T14:32:32.026Z,79.98
2023-12-09T14:35:35.160Z,80.45
2023-12-09T14:38:38.244Z,80.36
2023-12-09T14:41:41.726Z,80.10
2023-12-09T14:44:44.861Z,79.53
2023-12-09T14:47:54.353Z,80.17
2023-12-09T14:51:05.004Z,79.78
2023-12-09T14:54:09.055Z,79.50
2023-12-09T14:57:12.505Z,79.48
2023-12-09T15:00:17.041Z,80.28
2023-12-09T15:03:20.399Z,81.23
2023-12-09T15:06:23.700Z,82.27
2023-12-09T15:09:26.956Z,83.51
2023-12-09T15:12:30.783Z,85.13
2023-12-09T15:15:33.988Z,85.38
2023-12-09T15:18:37.361Z,85.07
2023-12-09T15:22:05.806Z,84.74
2023-12-09T15:25:10.598Z,85.93
2023-12-09T15:28:14.010Z,85.66
2023-12-09T15:31:16.908Z,86.14
2023-12-09T15:34:19.902Z,86.70
2023-12-09T15:37:22.966Z,87.00
2023-12-09T15:40:25.868Z,87.61
2023-12-09T15:43:28.839Z,88.11
2023-12-09T15:46:31.836Z,88.39
2023-12-09T15:49:34.865Z,87.30
2023-12-09T15:52:37.873Z,87.60
2023-12-09T15:55:40.819Z,88.47
2023-12-09T15:58:43.836Z,89.19
2023-12-09T16:01:48.156Z,89.34
2023-12-09T16:04:51.408Z,90.02
2023-12-09T16:07:54.672Z,89.89
2023-12-09T16:10:57.616Z,89.64
2023-12-09T16:14:00.449Z,88.90
2023-12-09T16:17:03.897Z,89.63
2023-12-09T16:20:07.451Z,90.14
2023-12-09T16:23:13.274Z,90.84
2023-12-09T16:26:16.570Z,90.91
2023-12-09T16:29:19.461Z,91.94
2023-12-09T16:32:22.987Z,92.41
2023-12-09T16:35:27.185Z,93.06
2023-12-09T16:38:30.037Z,93.19
2023-12-09T16:41:33.711Z,93.11
2023-12-09T16:44:37.049Z,93.61
2023-12-09T16:47:41.221Z,93.81
2023-12-09T16:50:44.671Z,94.00
2023-12-09T16:53:48.223Z,94.75
2023-12-09T16:56:52.012Z,95.07
2023-12-09T16:59:56.483Z,94.45
2023-12-09T17:02:59.536Z,94.73
2023-12-09T17:06:02.525Z,94.47
2023-12-09T17:09:05.879Z,94.37
2023-12-09T17:12:09.714Z,94.54
2023-12-09T17:15:19.478Z,94.86
2023-12-09T17:18:23.093Z,94.73
2023-12-09T17:21:26.332Z,94.12
2023-12-09T17:24:31.911Z,94.05
2023-12-09T17:27:35.309Z,93.42
2023-12-09T17:30:38.904Z,94.41
2023-12-09T17:33:42.766Z,93.17
2023-12-09T17:36:46.004Z,94.22
2023-12-09T17:39:49.063Z,93.89
2023-12-09T17:42:52.325Z,93.79
2023-12-09T17:45:55.463Z,93.09
2023-12-09T17:48:58.821Z,92.93
2023-12-09T17:52:05.304Z,93.92
2023-12-09T17:55:08.576Z,92.66
2023-12-09T17:58:11.789Z,92.98
2023-12-09T18:01:14.812Z,93.56
2023-12-09T18:04:18.172Z,94.10
2023-12-09T18:07:22.602Z,93.14
2023-12-09T18:10:25.896Z,93.72
2023-12-09T18:13:29.090Z,93.86
2023-12-09T18:16:32.814Z,94.20
2023-12-09T18:19:35.959Z,92.86
2023-12-09T18:22:42.200Z,92.79
2023-12-09T18:25:45.406Z,93.58
2023-12-09T18:28:48.707Z,93.71
2023-12-09T18:31:51.638Z,94.02
2023-12-09T18:34:58.950Z,93.98
2023-12-09T18:38:03.680Z,94.41
2023-12-09T18:41:07.114Z,94.59
2023-12-09T18:44:10.048Z,95.59
2023-12-09T18:47:13.052Z,95.89
2023-12-09T18:50:16.053Z,95.61
2023-12-09T18:53:19.367Z,95.86
2023-12-09T18:56:25.555Z,95.73
2023-12-09T18:59:28.908Z,95.56
2023-12-09T19:02:33.251Z,95.10
2023-12-09T19:05:40.315Z,96.01
2023-12-09T19:08:43.754Z,95.05
2023-12-09T19:11:47.296Z,94.43
2023-12-09T19:14:50.640Z,93.97
2023-12-09T19:17:53.972Z,94.28
2023-12-09T19:21:00.484Z,94.52
2023-12-09T19:24:04.521Z,95.22
2023-12-09T19:27:10.643Z,95.14
2023-12-09T19:30:15.292Z,95.55
2023-12-09T19:33:18.410Z,96.01
2023-12-09T19:36:21.511Z,96.21
2023-12-09T19:39:24.843Z,96.44
2023-12-09T19:42:28.081Z,96.74
2023-12-09T19:45:31.764Z,97.00
2023-12-09T19:48:35.900Z,97.06
2023-12-09T19:51:38.959Z,97.13
2023-12-09T19:54:41.990Z,97.91
2023-12-09T19:57:45.889Z,98.39
2023-12-09T20:00:49.872Z,97.82
2023-12-09T20:03:53.182Z,98.13
2023-12-09T20:06:57.394Z,98.25
2023-12-09T20:10:01.300Z,98.58
2023-12-09T20:13:04.394Z,98.72
2023-12-09T20:16:07.816Z,99.19
2023-12-09T20:19:11.161Z,99.45
2023-12-09T20:22:15.848Z,99.72
2023-12-09T20:25:19.034Z,99.41
2023-12-09T20:28:22.225Z,98.94
2023-12-09T20:31:25.556Z,99.13
2023-12-09T20:34:28.885Z,99.13
2023-12-09T20:37:31.871Z,99.24
2023-12-09T20:40:35.073Z,98.74
2023-12-09T20:43:38.205Z,98.50
2023-12-09T20:46:42.279Z,98.73
2023-12-09T20:49:45.597Z,99.34
2023-12-09T20:52:48.638Z,98.68
2023-12-09T20:55:51.739Z,98.43
2023-12-09T20:58:54.589Z,98.27
2023-12-09T21:01:58.311Z,98.22
2023-12-09T21:05:03.998Z,97.81
2023-12-09T21:08:09.682Z,98.61
2023-12-09T21:11:14.780Z,98.14
2023-12-09T21:14:18.101Z,98.02
2023-12-09T21:17:21.054Z,97.35
2023-12-09T21:20:24.209Z,97.44
2023-12-09T21:23:27.067Z,96.90
2023-12-09T21:26:30.374Z,96.97
2023-12-09T21:29:33.289Z,97.01
2023-12-09T21:32:36.198Z,97.03
2023-12-09T21:35:39.242Z,96.91
2023-12-09T21:38:42.951Z,97.53
2023-12-09T21:41:46.046Z,96.57
2023-12-09T21:44:50.638Z,96.87
2023-12-09T21:47:55.718Z,96.84
2023-12-09T21:51:00.093Z,96.62
2023-12-09T21:54:02.937Z,96.84
2023-12-09T21:57:06.132Z,97.09
2023-12-09T22:00:09.615Z,97.33
2023-12-09T22:03:12.966Z,97.14
2023-12-09T22:06:16.504Z,97.29
2023-12-09T22:09:19.437Z,96.95
2023-12-09T22:12:22.502Z,96.03
2023-12-09T22:15:26.349Z,96.17
2023-12-09T22:18:29.801Z,96.44
2023-12-09T22:21:33.068Z,96.04
2023-12-09T22:24:37.099Z,95.89
2023-12-09T22:27:40.328Z,96.79
2023-12-09T22:30:43.199Z,96.69
2023-12-09T22:33:50.968Z,96.66
2023-12-09T22:36:54.092Z,96.89
2023-12-09T22:39:58.950Z,97.22
2023-12-09T22:43:02.222Z,97.57
2023-12-09T22:46:05.796Z,97.90
2023-12-09T22:49:09.029Z,97.63
2023-12-09T22:52:12.311Z,97.10
2023-12-09T22:55:15.294Z,94.39
2023-12-09T22:58:18.421Z,93.57
2023-12-09T23:01:23.669Z,92.96
2023-12-09T23:04:27.240Z,92.88
2023-12-09T23:07:30.441Z,93.35
2023-12-09T23:10:33.732Z,95.16
2023-12-09T23:13:36.775Z,96.58
2023-12-09T23:16:39.682Z,96.81
2023-12-09T23:19:46.344Z,97.11
2023-12-09T23:22:49.360Z,97.29
2023-12-09T23:25:52.697Z,97.14
2023-12-09T23:28:55.845Z,97.42
2023-12-09T23:31:58.778Z,96.62
2023-12-09T23:35:01.723Z,96.88
2023-12-09T23:38:06.501Z,97.15
2023-12-09T23:41:16.881Z,97.37
2023-12-09T23:44:22.133Z,97.32
2023-12-09T23:47:25.173Z,97.34
2023-12-09T23:50:28.419Z,97.18
2023-12-09T23:53:31.537Z,96.95
2023-12-09T23:56:34.757Z,96.94
2023-12-09T23:59:37.795Z,97.17
